Kezdőlap
METAR-TAF:

METAR-TAF

Repülőterek :

Waterville Robert LaFleur Airport

Waterville, Maine, Amerikai Egyesült Államok

földrajzi szélesség: 44-32N, földrajzi hosszúság: 069-41W, magasság: 101 m

Jelenlegi meteorológiai megfigyelések

A jelentés 1 órával és 0 perccel ezelõtt készült, 22:56 UTC
Szélcsend
Hőmérséklet -11°C
Páratartalom 61%
Légköri nyomás 1022 hPa
Látótávolság: 16.1 km
Borult 11000 lábon

METAR: KWVL 182256Z AUTO 00000KT 10SM OVC110 M11/M17 A3019 RMK AO2 SLP260 T11111172 FZRANO

Idő: 18:56 (23:56 UTC)


TAF: hiányzik

Meteorológiai megfigyelések és előrejelzések több, mint 4000 repülőtéren (METAR és TAF jelentéseket).

A térképen piros és sárga pontok jelzik az elérhető meteorológiai állomásokat.

Mozgassa az egeret a pont fölött, hogy megjelenjen az állomás neve.

Azután kattintson az időjárási megfigyelések és előrejelzések megtekintéséhez.

A térkép megváltoztatása: kattintson a fekete keresztel jelölt zöld gombra ráközelítéshez, a vonallal jelölt zöld gombra távolításhoz, vagy a zöld nyilakra a szomszédos térképek eléréséhez.


METAR-TAF: